Time;durP1;ratioP1;P1;durP2;ratioP2;P2;SDS_P1;SDS_P2;PMS_P1;PMS_P2;Temp;Humidity;BMP_temperature;BMP_pressure;BME280_temperature;BME280_humidity;BME280_pressure;Samples;Min_cycle;Max_cycle;Signal;HPM_P1;HPM_P2
2020/12/29 00:01:47;;;;;;;2.38;1.60;;;16.40;28.40;;;;;;5114832;28;20161;-61
2020/12/29 00:04:22;;;;;;;3.90;2.00;;;16.40;28.40;;;;;;5114580;28;20164;-61
2020/12/29 00:06:55;;;;;;;2.10;1.48;;;16.40;28.40;;;;;;5114631;28;20204;-60
2020/12/29 00:09:25;;;;;;;1.45;1.35;;;16.40;28.30;;;;;;5114410;28;20185;-61
2020/12/29 00:11:55;;;;;;;1.88;1.35;;;16.40;28.30;;;;;;5114486;28;20189;-61
2020/12/29 00:14:23;;;;;;;1.20;1.10;;;16.40;28.30;;;;;;5114521;28;20233;-60
2020/12/29 00:16:48;;;;;;;1.95;1.65;;;16.40;28.30;;;;;;5114403;28;20153;-60
2020/12/29 00:19:19;;;;;;;1.73;1.27;;;16.40;28.30;;;;;;5114393;28;20168;-61
2020/12/29 00:21:45;;;;;;;1.60;1.50;;;16.40;28.30;;;;;;5114246;28;20158;-61
2020/12/29 00:24:10;;;;;;;1.90;1.40;;;16.40;28.30;;;;;;5095668;28;20172;-59
2020/12/29 00:26:36;;;;;;;2.10;1.57;;;16.40;28.30;;;;;;5114561;28;20171;-59
2020/12/29 00:29:02;;;;;;;3.07;1.90;;;16.40;28.30;;;;;;5114329;28;20601;-60
2020/12/29 00:31:28;;;;;;;1.50;1.40;;;16.40;28.30;;;;;;5114408;28;20156;-60
2020/12/29 00:33:58;;;;;;;1.87;1.67;;;16.40;28.30;;;;;;5114271;28;20520;-60
2020/12/29 00:36:24;;;;;;;2.20;1.35;;;16.40;28.30;;;;;;5130237;28;20186;-60
2020/12/29 00:38:50;;;;;;;1.83;1.45;;;16.40;28.30;;;;;;5113880;28;20179;-61
2020/12/29 00:41:23;;;;;;;1.83;1.73;;;16.40;28.30;;;;;;5114297;28;20157;-61
2020/12/29 00:43:48;;;;;;;3.92;2.35;;;16.40;28.30;;;;;;5114141;28;20452;-60
2020/12/29 00:46:23;;;;;;;1.63;1.30;;;16.40;28.30;;;;;;5114309;28;20153;-60
2020/12/29 00:48:49;;;;;;;1.63;1.45;;;16.40;28.30;;;;;;5114249;28;20156;-60
2020/12/29 00:51:20;;;;;;;2.00;1.35;;;16.40;28.30;;;;;;5095801;28;20505;-60
2020/12/29 00:53:46;;;;;;;3.17;1.60;;;16.40;28.30;;;;;;5113697;28;20162;-59
2020/12/29 00:56:12;;;;;;;1.55;1.45;;;16.40;28.30;;;;;;5113992;28;20157;-60
2020/12/29 00:58:39;;;;;;;2.28;1.88;;;16.40;28.30;;;;;;5113882;28;20152;-60
2020/12/29 01:01:06;;;;;;;1.85;1.30;;;16.40;28.30;;;;;;5114265;28;20154;-61
2020/12/29 01:03:32;;;;;;;2.03;1.40;;;16.40;28.30;;;;;;5114126;28;20154;-61
2020/12/29 01:05:58;;;;;;;1.93;1.60;;;16.40;28.30;;;;;;5114122;28;20608;-60
2020/12/29 01:08:24;;;;;;;1.73;1.30;;;16.40;28.30;;;;;;5113622;28;20664;-61
2020/12/29 01:10:52;;;;;;;1.73;1.40;;;16.40;28.30;;;;;;5113998;28;20411;-61
2020/12/29 01:13:21;;;;;;;1.52;1.42;;;16.40;28.30;;;;;;5113989;28;20406;-61
2020/12/29 01:15:48;;;;;;;2.72;1.40;;;16.40;28.30;;;;;;5113986;28;20608;-61
2020/12/29 01:18:13;;;;;;;1.70;1.50;;;16.40;28.30;;;;;;5116187;28;20153;-61
2020/12/29 01:20:39;;;;;;;1.50;1.40;;;16.40;28.30;;;;;;5117873;28;20236;-61
2020/12/29 01:23:05;;;;;;;1.90;1.23;;;16.40;28.30;;;;;;5117357;28;20150;-60
2020/12/29 01:25:31;;;;;;;1.40;1.30;;;16.40;28.30;;;;;;5117630;28;20563;-61
2020/12/29 01:27:57;;;;;;;1.90;1.70;;;16.40;28.30;;;;;;5117506;28;20218;-60
2020/12/29 01:30:23;;;;;;;1.50;1.33;;;16.40;28.30;;;;;;5099594;28;20546;-60
2020/12/29 01:32:49;;;;;;;2.13;1.93;;;16.40;28.30;;;;;;5117814;28;20901;-60
2020/12/29 01:35:15;;;;;;;1.43;1.20;;;16.40;28.30;;;;;;5099279;28;20264;-60
2020/12/29 01:37:42;;;;;;;4.03;1.67;;;16.40;28.30;;;;;;5116977;28;20154;-60
2020/12/29 01:40:09;;;;;;;2.22;1.90;;;16.40;28.30;;;;;;5117514;28;20406;-60
2020/12/29 01:42:36;;;;;;;2.08;1.38;;;16.40;28.30;;;;;;5117387;28;20180;-60
2020/12/29 01:45:06;;;;;;;1.77;1.50;;;16.40;28.30;;;;;;5117426;28;20160;-60
2020/12/29 01:47:33;;;;;;;1.70;1.30;;;16.40;28.30;;;;;;5117367;28;20160;-60
2020/12/29 01:49:59;;;;;;;2.10;1.85;;;16.40;28.30;;;;;;5117070;28;20651;-60
2020/12/29 01:52:25;;;;;;;1.77;1.67;;;16.40;28.30;;;;;;5116625;28;20169;-61
2020/12/29 01:54:51;;;;;;;1.47;1.37;;;16.40;28.30;;;;;;5117032;28;20267;-60
2020/12/29 01:57:19;;;;;;;1.70;1.30;;;16.40;28.30;;;;;;5116866;28;20212;-60
2020/12/29 01:59:46;;;;;;;1.73;1.63;;;16.40;28.30;;;;;;5099002;28;20498;-60
2020/12/29 02:02:12;;;;;;;2.53;1.63;;;16.40;28.30;;;;;;5099165;28;20275;-60
2020/12/29 02:04:37;;;;;;;2.27;1.70;;;16.40;28.30;;;;;;5117093;28;20591;-60
2020/12/29 02:07:04;;;;;;;1.93;1.43;;;16.40;28.30;;;;;;5116530;28;20158;-60
2020/12/29 02:09:30;;;;;;;1.50;1.25;;;16.40;28.30;;;;;;5098647;28;20161;-60
2020/12/29 02:11:55;;;;;;;2.13;1.30;;;16.40;28.30;;;;;;5098630;28;20157;-60
2020/12/29 02:14:21;;;;;;;2.40;1.47;;;16.40;28.30;;;;;;5098813;28;20820;-61
2020/12/29 02:16:47;;;;;;;1.30;1.20;;;16.40;28.30;;;;;;5116895;28;20260;-60
2020/12/29 02:19:12;;;;;;;1.50;1.33;;;16.40;28.30;;;;;;5098380;28;20579;-60
2020/12/29 02:21:38;;;;;;;2.30;2.10;;;16.40;28.90;;;;;;5116671;28;20161;-59
2020/12/29 02:24:05;;;;;;;3.13;2.05;;;16.40;28.30;;;;;;5116201;28;20150;-60
2020/12/29 02:26:33;;;;;;;2.20;1.40;;;16.40;28.30;;;;;;5116758;28;20161;-60
2020/12/29 02:29:00;;;;;;;1.35;1.25;;;16.40;28.30;;;;;;5116440;28;20200;-60
2020/12/29 02:31:25;;;;;;;1.60;1.50;;;16.40;28.30;;;;;;5116737;28;20153;-61
2020/12/29 02:33:51;;;;;;;1.40;1.30;;;16.40;28.30;;;;;;5116379;28;20656;-60
2020/12/29 02:36:17;;;;;;;1.60;1.37;;;16.40;28.30;;;;;;5116408;28;20186;-60
2020/12/29 02:38:43;;;;;;;1.80;1.37;;;16.40;28.30;;;;;;5115958;28;20505;-61
2020/12/29 02:41:09;;;;;;;1.47;1.20;;;16.40;28.30;;;;;;5116377;28;20627;-59
2020/12/29 02:43:34;;;;;;;1.10;0.93;;;16.40;28.30;;;;;;5098255;28;20399;-60
2020/12/29 02:46:00;;;;;;;1.30;1.20;;;16.40;28.30;;;;;;5116140;28;20160;-60
2020/12/29 02:48:25;;;;;;;3.00;1.50;;;16.40;28.30;;;;;;5115981;28;20162;-60
2020/12/29 02:50:51;;;;;;;1.40;1.17;;;16.40;28.30;;;;;;5116007;28;20177;-61
2020/12/29 02:53:20;;;;;;;2.83;2.00;;;16.40;28.30;;;;;;5115362;28;20527;-60
2020/12/29 02:55:45;;;;;;;1.90;1.40;;;16.40;28.30;;;;;;5116027;28;20365;-61
2020/12/29 02:58:11;;;;;;;1.80;1.27;;;16.40;28.30;;;;;;5115774;28;20675;-60
2020/12/29 03:00:37;;;;;;;2.00;1.80;;;16.40;28.30;;;;;;5115895;28;20235;-60
2020/12/29 03:03:03;;;;;;;2.07;1.87;;;16.40;28.30;;;;;;5115941;28;20198;-59
2020/12/29 03:05:28;;;;;;;1.60;1.40;;;16.40;28.30;;;;;;5115760;28;20164;-60
2020/12/29 03:07:54;;;;;;;1.57;1.20;;;16.40;28.30;;;;;;5115386;28;20512;-60
2020/12/29 03:10:21;;;;;;;1.57;1.37;;;16.40;28.30;;;;;;5115672;28;20682;-60
2020/12/29 03:12:49;;;;;;;1.35;1.13;;;16.40;28.30;;;;;;5115560;28;20399;-60
2020/12/29 03:15:14;;;;;;;1.98;1.58;;;16.40;28.30;;;;;;5115717;28;20193;-60
2020/12/29 03:17:40;;;;;;;1.70;1.33;;;16.40;28.30;;;;;;5115479;28;20153;-61
2020/12/29 03:20:06;;;;;;;1.53;1.40;;;16.40;28.30;;;;;;5115531;28;20161;-60
2020/12/29 03:22:32;;;;;;;1.15;1.05;;;16.40;28.80;;;;;;5114976;28;20157;-61
2020/12/29 03:24:58;;;;;;;1.50;1.40;;;16.40;28.30;;;;;;5115658;28;20149;-60
2020/12/29 03:27:24;;;;;;;1.40;1.00;;;16.40;28.30;;;;;;5115099;28;20507;-61
2020/12/29 03:29:49;;;;;;;1.70;1.40;;;16.40;28.30;;;;;;5115331;28;20157;-60
2020/12/29 03:32:15;;;;;;;3.30;1.77;;;16.40;28.30;;;;;;5097211;28;20515;-61
2020/12/29 03:34:41;;;;;;;2.30;1.87;;;16.50;28.40;;;;;;5115267;28;20221;-60
2020/12/29 03:37:08;;;;;;;2.20;1.30;;;16.40;28.30;;;;;;5096483;28;20169;-60
2020/12/29 03:39:36;;;;;;;1.77;1.67;;;16.40;28.30;;;;;;5096729;28;20676;-60
2020/12/29 03:42:02;;;;;;;1.50;1.20;;;16.40;28.30;;;;;;5114822;28;20506;-61
2020/12/29 03:44:28;;;;;;;1.80;1.40;;;16.40;28.30;;;;;;5115348;28;20161;-61
2020/12/29 03:46:53;;;;;;;3.43;2.00;;;16.40;28.30;;;;;;5114781;28;20150;-61
2020/12/29 03:49:20;;;;;;;1.40;1.30;;;16.40;28.30;;;;;;5114760;28;20168;-61
2020/12/29 03:51:46;;;;;;;2.28;1.80;;;16.40;28.30;;;;;;5115068;28;20185;-61
2020/12/29 03:54:11;;;;;;;2.53;1.40;;;16.40;28.30;;;;;;5114467;28;20588;-60
2020/12/29 03:56:37;;;;;;;4.10;1.80;;;16.40;28.30;;;;;;5096456;28;20499;-61
2020/12/29 03:59:03;;;;;;;1.30;1.20;;;16.40;28.30;;;;;;5096715;28;20237;-60
2020/12/29 04:01:29;;;;;;;2.00;1.58;;;16.40;28.30;;;;;;5114606;28;20193;-60
2020/12/29 04:03:54;;;;;;;1.40;1.20;;;16.40;28.30;;;;;;5114448;28;20191;-60
2020/12/29 04:06:20;;;;;;;1.30;1.20;;;16.40;28.30;;;;;;5114833;28;20605;-61
2020/12/29 04:08:49;;;;;;;1.57;1.37;;;16.40;28.30;;;;;;5114213;28;20164;-60
2020/12/29 04:11:15;;;;;;;1.50;1.10;;;16.40;28.30;;;;;;5114671;28;20181;-61
2020/12/29 04:13:41;;;;;;;2.47;1.60;;;16.40;28.30;;;;;;5114750;28;20191;-60
2020/12/29 04:16:07;;;;;;;1.52;1.30;;;16.40;28.30;;;;;;5114548;28;20789;-60
2020/12/29 04:18:33;;;;;;;1.67;1.30;;;16.40;28.30;;;;;;5114301;28;20485;-60
2020/12/29 04:20:58;;;;;;;1.87;1.30;;;16.40;28.30;;;;;;5114468;28;20149;-60
2020/12/29 04:23:24;;;;;;;2.43;1.60;;;16.40;28.30;;;;;;5113941;28;20602;-60
2020/12/29 04:25:51;;;;;;;1.30;1.20;;;16.40;28.30;;;;;;5114520;28;20429;-60
2020/12/29 04:28:19;;;;;;;1.92;1.58;;;16.40;28.40;;;;;;5114182;28;20481;-60
2020/12/29 04:30:45;;;;;;;1.48;1.33;;;16.40;28.30;;;;;;5114595;28;20161;-60
2020/12/29 04:33:10;;;;;;;1.30;1.20;;;16.40;28.30;;;;;;5095879;28;20195;-60
2020/12/29 04:35:36;;;;;;;1.40;1.10;;;16.40;28.30;;;;;;5114299;28;20647;-60
2020/12/29 04:38:02;;;;;;;1.93;1.57;;;16.40;28.30;;;;;;5114067;28;20637;-60
2020/12/29 04:40:34;;;;;;;1.53;1.30;;;16.40;28.30;;;;;;5114333;28;20260;-61
2020/12/29 04:42:59;;;;;;;2.70;1.65;;;16.40;28.30;;;;;;5114177;28;20160;-61
2020/12/29 04:45:25;;;;;;;1.60;1.30;;;16.40;28.30;;;;;;5114285;28;20165;-61
2020/12/29 04:47:53;;;;;;;1.57;1.23;;;16.40;28.30;;;;;;5114184;28;20403;-59
2020/12/29 04:50:20;;;;;;;1.48;1.38;;;16.40;28.30;;;;;;5113892;28;20430;-60
2020/12/29 04:52:56;;;;;;;2.15;1.45;;;16.40;28.40;;;;;;5115335;28;20153;-60
2020/12/29 04:55:29;;;;;;;2.17;1.65;;;16.40;28.30;;;;;;5118562;28;20222;-60
2020/12/29 04:57:55;;;;;;;1.48;1.20;;;16.40;28.30;;;;;;5118327;28;20204;-61
2020/12/29 05:00:24;;;;;;;2.33;1.10;;;16.40;28.30;;;;;;5100088;28;20164;-61
2020/12/29 05:02:50;;;;;;;1.75;1.30;;;16.40;28.30;;;;;;5118252;28;20395;-61
2020/12/29 05:05:16;;;;;;;1.63;1.40;;;16.40;28.30;;;;;;5117958;28;20172;-61
2020/12/29 05:07:43;;;;;;;1.10;1.00;;;16.40;28.30;;;;;;5117732;28;20159;-61
2020/12/29 05:10:09;;;;;;;1.63;1.50;;;16.40;28.30;;;;;;5118180;28;20214;-59
2020/12/29 05:12:47;;;;;;;1.17;1.07;;;16.40;28.30;;;;;;5118191;28;20612;-60
2020/12/29 05:15:13;;;;;;;1.92;1.38;;;16.40;28.30;;;;;;5117991;28;20562;-60
2020/12/29 05:17:38;;;;;;;2.70;1.50;;;16.40;28.30;;;;;;5117946;28;20600;-60
2020/12/29 05:20:05;;;;;;;2.10;1.30;;;16.40;28.30;;;;;;5117978;28;20410;-60
2020/12/29 05:22:34;;;;;;;1.30;1.20;;;16.40;28.30;;;;;;5099134;28;20168;-60
2020/12/29 05:24:59;;;;;;;1.70;1.60;;;16.40;28.30;;;;;;5117801;28;20165;-60
2020/12/29 05:27:25;;;;;;;2.00;1.83;;;16.40;28.30;;;;;;5117665;28;20161;-60
2020/12/29 05:29:51;;;;;;;2.90;1.63;;;16.40;28.30;;;;;;5117705;28;20207;-60
2020/12/29 05:32:23;;;;;;;2.53;1.40;;;16.40;28.30;;;;;;5099198;28;20619;-60
2020/12/29 05:34:49;;;;;;;1.98;1.42;;;16.40;28.30;;;;;;5117503;28;20230;-60
2020/12/29 05:37:16;;;;;;;1.97;1.60;;;16.40;28.40;;;;;;5116809;28;20153;-60
2020/12/29 05:39:41;;;;;;;1.17;1.05;;;16.40;28.40;;;;;;5117447;28;20632;-60
2020/12/29 05:42:07;;;;;;;1.23;1.00;;;16.40;28.40;;;;;;5117420;28;20178;-60
2020/12/29 05:44:34;;;;;;;1.67;1.20;;;16.40;28.40;;;;;;5098891;28;20621;-60
2020/12/29 05:47:03;;;;;;;1.45;1.35;;;16.40;28.40;;;;;;5117064;28;20437;-59
2020/12/29 05:49:31;;;;;;;1.23;1.00;;;16.40;28.40;;;;;;5117325;28;20169;-60
2020/12/29 05:51:57;;;;;;;1.38;1.27;;;16.40;28.40;;;;;;5116747;28;20166;-60
2020/12/29 05:54:27;;;;;;;1.95;1.10;;;16.40;28.40;;;;;;5117115;28;20181;-60
2020/12/29 05:56:53;;;;;;;2.05;1.35;;;16.40;28.40;;;;;;5116792;28;20296;-61
2020/12/29 05:59:20;;;;;;;1.27;1.10;;;16.40;28.40;;;;;;5116007;28;20171;-60
2020/12/29 06:01:51;;;;;;;2.00;1.10;;;16.40;28.40;;;;;;5115678;28;20161;-60
2020/12/29 06:04:21;;;;;;;1.48;1.20;;;16.40;28.40;;;;;;5115437;28;20161;-60
2020/12/29 06:06:50;;;;;;;2.45;1.40;;;16.40;28.40;;;;;;5115737;28;20184;-60
2020/12/29 06:09:18;;;;;;;1.35;1.10;;;16.40;28.40;;;;;;5115147;28;20157;-60
2020/12/29 06:11:59;;;;;;;2.15;1.30;;;16.40;28.40;;;;;;5115546;28;20156;-60
2020/12/29 06:14:26;;;;;;;1.20;1.10;;;16.40;28.40;;;;;;5097186;28;20208;-60
2020/12/29 06:16:53;;;;;;;1.42;1.20;;;16.40;28.40;;;;;;5115470;28;20619;-60
2020/12/29 06:19:27;;;;;;;2.55;1.40;;;16.40;28.40;;;;;;5115760;28;20161;-60
2020/12/29 06:22:03;;;;;;;1.63;1.30;;;16.40;28.40;;;;;;5115290;28;20149;-60
2020/12/29 06:24:30;;;;;;;1.48;1.38;;;16.40;28.40;;;;;;5097240;28;20177;-60
2020/12/29 06:27:01;;;;;;;1.50;1.10;;;16.40;28.40;;;;;;5115906;28;20214;-60
2020/12/29 06:29:34;;;;;;;1.50;1.27;;;16.30;28.40;;;;;;5097064;28;20176;-60
2020/12/29 06:32:12;;;;;;;1.42;1.33;;;16.40;28.40;;;;;;5115309;28;20240;-60
2020/12/29 06:34:39;;;;;;;1.20;1.10;;;16.40;28.40;;;;;;5131444;28;20224;-60
2020/12/29 06:37:23;;;;;;;1.73;1.30;;;16.30;28.30;;;;;;5114895;28;20154;-60
2020/12/29 06:39:53;;;;;;;1.30;1.20;;;16.40;28.40;;;;;;5096825;28;20665;-60
2020/12/29 06:42:19;;;;;;;1.77;1.35;;;16.30;28.30;;;;;;5115309;28;20180;-61
2020/12/29 06:44:54;;;;;;;1.33;1.23;;;16.30;28.30;;;;;;5114966;28;20161;-60
2020/12/29 06:47:24;;;;;;;1.42;1.20;;;16.30;28.30;;;;;;5114921;28;20243;-60
2020/12/29 06:49:51;;;;;;;1.30;1.17;;;16.30;28.90;;;;;;5115094;28;20199;-60
2020/12/29 06:52:32;;;;;;;1.15;1.05;;;16.30;28.40;;;;;;5114314;28;20153;-60
2020/12/29 06:55:00;;;;;;;1.38;1.27;;;16.30;28.40;;;;;;5114903;28;20238;-60
2020/12/29 06:57:49;;;;;;;1.27;1.08;;;16.30;28.40;;;;;;5074940;28;635446;-60
2020/12/29 07:00:17;;;;;;;1.60;1.27;;;16.30;28.40;;;;;;5097665;28;20153;-60
2020/12/29 07:02:47;;;;;;;2.28;1.10;;;16.30;28.40;;;;;;5115746;28;20265;-60
2020/12/29 07:05:14;;;;;;;1.17;1.08;;;16.30;28.40;;;;;;5116017;28;20194;-60
2020/12/29 07:08:00;;;;;;;1.45;1.30;;;16.30;28.40;;;;;;5115325;28;20156;-60
2020/12/29 07:10:32;;;;;;;1.42;1.33;;;16.30;28.40;;;;;;5115948;28;20168;-60
2020/12/29 07:13:04;;;;;;;1.30;1.10;;;16.30;28.40;;;;;;5097193;28;20169;-60
2020/12/29 07:15:31;;;;;;;1.95;1.15;;;16.30;28.40;;;;;;5114961;28;20189;-60
2020/12/29 07:18:04;;;;;;;0.90;0.80;;;16.30;28.40;;;;;;5115712;28;20184;-60
2020/12/29 07:20:35;;;;;;;1.48;1.10;;;16.30;28.40;;;;;;5115426;28;20187;-60
2020/12/29 07:23:06;;;;;;;1.63;1.15;;;16.30;28.40;;;;;;5114728;28;20149;-61
2020/12/29 07:25:32;;;;;;;1.40;1.15;;;16.30;28.40;;;;;;5115703;28;20145;-60
2020/12/29 07:28:01;;;;;;;1.60;1.20;;;16.30;28.40;;;;;;5114915;28;20146;-60
2020/12/29 07:30:28;;;;;;;1.48;1.20;;;16.30;28.50;;;;;;5115315;28;20161;-59
2020/12/29 07:32:57;;;;;;;1.73;1.17;;;16.30;28.50;;;;;;5097081;28;20199;-60
2020/12/29 07:35:26;;;;;;;0.85;0.85;;;16.30;28.40;;;;;;5115170;28;20180;-61
2020/12/29 07:37:55;;;;;;;1.10;1.00;;;16.30;28.50;;;;;;5114472;28;20150;-60
2020/12/29 07:40:21;;;;;;;1.75;1.17;;;16.30;28.40;;;;;;5114988;28;20160;-60
2020/12/29 07:42:46;;;;;;;1.53;1.10;;;16.30;28.40;;;;;;5114950;28;20516;-60
2020/12/29 07:45:12;;;;;;;1.47;0.90;;;16.30;28.50;;;;;;5096660;28;20654;-60
2020/12/29 07:47:38;;;;;;;0.93;0.90;;;16.30;28.90;;;;;;5114773;28;20516;-60
2020/12/29 07:50:04;;;;;;;1.23;1.13;;;16.30;28.40;;;;;;5114797;28;20640;-59
2020/12/29 07:52:29;;;;;;;1.52;1.10;;;16.30;28.40;;;;;;5114301;28;20157;-61
2020/12/29 07:55:12;;;;;;;1.30;1.20;;;16.40;28.50;;;;;;5096566;28;20207;-59
2020/12/29 07:57:39;;;;;;;1.17;1.08;;;16.40;28.40;;;;;;5114346;28;20299;-60
2020/12/29 08:00:19;;;;;;;1.10;1.00;;;16.40;28.40;;;;;;5096202;28;20176;-60
2020/12/29 08:02:52;;;;;;;1.20;1.10;;;16.40;28.40;;;;;;5114627;28;20228;-59
2020/12/29 08:05:22;;;;;;;0.90;0.90;;;16.40;28.40;;;;;;5114890;28;20150;-60
2020/12/29 08:08:05;;;;;;;1.10;1.00;;;16.40;28.40;;;;;;5114096;28;20157;-61
2020/12/29 08:10:32;;;;;;;1.50;1.40;;;16.40;28.40;;;;;;5114390;28;20492;-61
2020/12/29 08:13:03;;;;;;;1.17;1.00;;;16.40;28.40;;;;;;5114501;28;20172;-61
2020/12/29 08:15:30;;;;;;;1.38;1.27;;;16.40;28.30;;;;;;5114430;28;20193;-61
2020/12/29 08:18:13;;;;;;;1.08;0.93;;;16.40;28.30;;;;;;5114670;28;20149;-60
2020/12/29 08:20:52;;;;;;;1.20;1.10;;;16.40;28.30;;;;;;5114235;28;20250;-60
2020/12/29 08:23:22;;;;;;;2.45;1.10;;;16.40;28.30;;;;;;5095707;28;20647;-61
2020/12/29 08:25:59;;;;;;;0.93;0.80;;;16.40;28.30;;;;;;5096185;28;20516;-61
2020/12/29 08:28:26;;;;;;;1.25;1.00;;;16.40;28.20;;;;;;5114275;28;20679;-60
2020/12/29 08:30:54;;;;;;;1.25;1.05;;;16.40;28.20;;;;;;5114370;28;20169;-60
2020/12/29 08:33:22;;;;;;;1.40;1.10;;;16.50;28.30;;;;;;5130011;27;20624;-59
2020/12/29 08:35:52;;;;;;;1.17;1.08;;;16.50;28.30;;;;;;5096031;28;20235;-59
2020/12/29 08:38:29;;;;;;;2.03;1.00;;;16.50;28.30;;;;;;5113829;28;20155;-60
2020/12/29 08:41:13;;;;;;;1.40;1.30;;;16.50;28.20;;;;;;5114266;28;20619;-60
2020/12/29 08:43:43;;;;;;;1.30;1.10;;;16.50;28.20;;;;;;5114127;28;20149;-61
2020/12/29 08:46:12;;;;;;;1.50;1.20;;;16.50;28.20;;;;;;5130352;28;20176;-61
2020/12/29 08:48:40;;;;;;;1.25;1.02;;;16.50;28.30;;;;;;5114357;28;20162;-61
2020/12/29 08:51:21;;;;;;;1.40;0.90;;;16.50;28.20;;;;;;5114408;28;20683;-60
2020/12/29 08:53:46;;;;;;;1.20;1.05;;;16.50;28.20;;;;;;5113730;28;20188;-61
2020/12/29 08:56:26;;;;;;;1.37;1.00;;;16.50;28.10;;;;;;5113859;28;20227;-60
2020/12/29 08:58:53;;;;;;;1.20;1.10;;;16.50;28.10;;;;;;5114129;28;20597;-60
2020/12/29 09:01:35;;;;;;;0.98;0.90;;;16.50;28.10;;;;;;5113954;28;20154;-60
2020/12/29 09:04:20;;;;;;;1.10;1.00;;;16.50;28.60;;;;;;5129935;28;20169;-60
2020/12/29 09:07:17;;;;;;;1.17;0.85;;;16.50;28.10;;;;;;5113853;28;20164;-60
2020/12/29 09:09:51;;;;;;;2.25;0.90;;;16.50;28.10;;;;;;5096343;28;20212;-60
2020/12/29 09:12:28;;;;;;;2.05;0.82;;;16.60;28.10;;;;;;5113944;28;20488;-60
2020/12/29 09:14:54;;;;;;;1.10;0.90;;;16.60;28.10;;;;;;5113891;28;20181;-60
2020/12/29 09:17:22;;;;;;;1.38;1.00;;;16.50;28.00;;;;;;5113792;28;20241;-59
2020/12/29 09:20:07;;;;;;;1.23;0.95;;;16.50;28.00;;;;;;5096201;28;20161;-60
2020/12/29 09:22:34;;;;;;;1.10;1.00;;;16.50;28.00;;;;;;5113322;28;20157;-61
2020/12/29 09:24:59;;;;;;;1.25;0.93;;;16.50;28.00;;;;;;5113943;28;20164;-60
2020/12/29 09:27:32;;;;;;;1.57;1.17;;;16.50;28.10;;;;;;5114066;28;20161;-60
2020/12/29 09:30:11;;;;;;;1.27;1.15;;;16.50;28.00;;;;;;5113447;28;20663;-60
2020/12/29 09:32:38;;;;;;;0.90;0.80;;;16.60;28.10;;;;;;5095592;28;20263;-59
2020/12/29 09:35:24;;;;;;;2.03;1.33;;;16.60;28.10;;;;;;5095085;28;20188;-60
2020/12/29 09:37:50;;;;;;;1.25;1.10;;;16.60;28.10;;;;;;5112969;28;20152;-61
2020/12/29 09:40:15;;;;;;;1.27;1.13;;;16.60;28.00;;;;;;5117464;28;20652;-60
2020/12/29 09:42:41;;;;;;;1.27;1.00;;;16.60;28.00;;;;;;5117215;28;20549;-60
2020/12/29 09:45:07;;;;;;;1.07;0.97;;;16.60;28.00;;;;;;5117541;28;20531;-60
2020/12/29 09:47:32;;;;;;;0.90;0.73;;;16.60;28.00;;;;;;5117027;28;20154;-61
2020/12/29 09:49:58;;;;;;;1.60;1.10;;;16.60;27.90;;;;;;5117298;28;20176;-60
2020/12/29 09:52:31;;;;;;;1.13;0.87;;;16.70;27.90;;;;;;5116685;28;20580;-60
2020/12/29 09:54:57;;;;;;;1.00;0.95;;;16.70;27.90;;;;;;5117425;28;20241;-60
2020/12/29 09:57:23;;;;;;;1.10;1.00;;;16.70;27.80;;;;;;5116822;28;20671;-61
2020/12/29 09:59:49;;;;;;;1.02;0.93;;;16.70;27.70;;;;;;5099083;28;20410;-61
2020/12/29 10:02:14;;;;;;;1.17;1.07;;;16.80;27.70;;;;;;5117155;28;20161;-61
2020/12/29 10:04:40;;;;;;;1.03;0.93;;;16.80;27.70;;;;;;5116418;28;20521;-61
2020/12/29 10:07:06;;;;;;;1.40;1.30;;;16.80;27.70;;;;;;5116244;28;20158;-60
2020/12/29 10:09:31;;;;;;;1.00;0.87;;;16.80;27.60;;;;;;5117136;28;20162;-60
2020/12/29 10:11:57;;;;;;;1.10;1.00;;;16.80;27.60;;;;;;5098866;28;20168;-61
2020/12/29 10:14:23;;;;;;;1.23;0.90;;;16.80;27.60;;;;;;5116631;28;20189;-61
2020/12/29 10:16:49;;;;;;;0.97;0.87;;;16.80;27.50;;;;;;5099150;28;20510;-60
2020/12/29 10:19:14;;;;;;;1.00;0.90;;;16.80;27.50;;;;;;5116621;28;20591;-61
2020/12/29 10:21:43;;;;;;;0.90;0.70;;;16.90;27.50;;;;;;5116470;28;20830;-60
2020/12/29 10:24:10;;;;;;;0.82;0.80;;;16.90;27.50;;;;;;5081637;28;20199;-61
2020/12/29 10:26:36;;;;;;;1.30;0.90;;;16.90;27.40;;;;;;5098462;28;20157;-60
2020/12/29 10:29:01;;;;;;;1.60;1.17;;;16.90;27.40;;;;;;5116415;28;20149;-60
2020/12/29 10:31:27;;;;;;;0.90;0.87;;;16.90;27.40;;;;;;5098669;28;20669;-60
2020/12/29 10:33:54;;;;;;;1.60;0.97;;;16.90;27.40;;;;;;5116501;28;20240;-60
2020/12/29 10:36:20;;;;;;;2.72;1.60;;;16.90;27.30;;;;;;5116082;28;20185;-60
2020/12/29 10:38:45;;;;;;;1.07;0.97;;;16.90;27.30;;;;;;5116203;28;20218;-61
2020/12/29 10:41:11;;;;;;;1.70;1.20;;;16.90;27.30;;;;;;5098566;28;20181;-61
2020/12/29 10:43:37;;;;;;;0.80;0.80;;;16.90;27.30;;;;;;5097840;28;20263;-61
2020/12/29 10:46:02;;;;;;;1.00;0.90;;;17.00;27.30;;;;;;5116184;28;20189;-61
2020/12/29 10:48:28;;;;;;;1.00;0.77;;;17.00;27.30;;;;;;5116042;28;20153;-62
2020/12/29 10:50:54;;;;;;;1.27;1.10;;;17.00;27.20;;;;;;5096461;28;20185;-61
2020/12/29 10:53:19;;;;;;;1.17;1.00;;;17.10;27.10;;;;;;5115482;28;20153;-60
2020/12/29 10:55:45;;;;;;;0.70;0.70;;;17.10;27.00;;;;;;5097607;28;20549;-61
2020/12/29 10:58:10;;;;;;;1.27;1.00;;;17.10;26.90;;;;;;5115604;28;20213;-61
2020/12/29 11:00:36;;;;;;;1.10;0.90;;;17.20;26.90;;;;;;5097794;28;20599;-61
2020/12/29 11:03:02;;;;;;;1.13;1.03;;;17.20;26.90;;;;;;5097934;28;20598;-61
2020/12/29 11:05:27;;;;;;;1.00;0.90;;;17.20;26.80;;;;;;5115545;28;20617;-61
2020/12/29 11:07:53;;;;;;;1.40;1.20;;;17.20;26.70;;;;;;5115355;28;20248;-60
2020/12/29 11:10:18;;;;;;;1.27;1.13;;;17.20;26.70;;;;;;5097348;28;20162;-60
2020/12/29 11:12:44;;;;;;;1.10;0.80;;;17.30;26.20;;;;;;5115571;28;20229;-61
2020/12/29 11:15:10;;;;;;;0.97;0.83;;;17.30;26.60;;;;;;5115399;28;20215;-60
2020/12/29 11:17:35;;;;;;;1.53;1.10;;;17.30;26.60;;;;;;5115645;28;20200;-60
2020/12/29 11:20:02;;;;;;;1.30;1.20;;;17.30;26.60;;;;;;5115367;28;20183;-60
2020/12/29 11:22:28;;;;;;;1.08;0.77;;;17.30;26.50;;;;;;5115524;28;20149;-61
2020/12/29 11:24:53;;;;;;;0.87;0.60;;;17.30;26.40;;;;;;5115387;28;20161;-59
2020/12/29 11:27:19;;;;;;;2.00;0.93;;;17.40;26.30;;;;;;5114973;28;20168;-61
2020/12/29 11:29:45;;;;;;;1.10;0.97;;;17.40;26.30;;;;;;5115361;28;20160;-60
2020/12/29 11:32:10;;;;;;;1.00;0.90;;;17.40;26.30;;;;;;5115295;28;20157;-61
2020/12/29 11:34:36;;;;;;;1.23;0.90;;;17.50;26.40;;;;;;5114972;28;20189;-61
2020/12/29 11:37:01;;;;;;;1.40;1.10;;;17.50;26.40;;;;;;5096884;28;20153;-62
2020/12/29 11:39:27;;;;;;;1.33;0.90;;;17.40;26.30;;;;;;5115320;28;20619;-60
2020/12/29 11:41:53;;;;;;;1.50;1.20;;;17.50;26.40;;;;;;5115137;28;20149;-61
2020/12/29 11:44:19;;;;;;;1.33;1.20;;;17.50;26.40;;;;;;5115360;28;20157;-61
2020/12/29 11:46:45;;;;;;;1.00;0.63;;;17.50;26.40;;;;;;5097046;28;20176;-61
2020/12/29 11:49:10;;;;;;;1.80;1.23;;;17.50;26.40;;;;;;5114674;28;20399;-60
2020/12/29 11:51:36;;;;;;;1.40;1.03;;;17.50;26.40;;;;;;5114972;28;20157;-60
2020/12/29 11:54:02;;;;;;;1.20;1.07;;;17.50;26.40;;;;;;5079515;28;20168;-61
2020/12/29 11:56:27;;;;;;;1.73;1.43;;;17.50;26.40;;;;;;5096574;28;20169;-61
2020/12/29 11:58:55;;;;;;;1.33;1.03;;;17.50;26.40;;;;;;5114687;28;20184;-61
2020/12/29 12:01:21;;;;;;;1.00;0.80;;;17.50;27.00;;;;;;5114358;28;20156;-61
2020/12/29 12:03:50;;;;;;;1.13;0.90;;;17.50;26.40;;;;;;5114407;28;20512;-60
2020/12/29 12:06:15;;;;;;;1.33;1.15;;;17.50;26.40;;;;;;5114426;28;20198;-60
2020/12/29 12:08:41;;;;;;;3.13;1.10;;;17.50;26.40;;;;;;5095892;28;20516;-62
2020/12/29 12:11:06;;;;;;;2.03;1.23;;;17.50;26.40;;;;;;5114617;28;20609;-60
2020/12/29 12:13:32;;;;;;;1.97;1.27;;;17.50;26.40;;;;;;5114363;28;20551;-62
2020/12/29 12:15:58;;;;;;;2.13;1.30;;;17.50;26.40;;;;;;5114366;28;20184;-61
2020/12/29 12:18:23;;;;;;;1.80;1.20;;;17.60;26.50;;;;;;5115886;28;20153;-62
2020/12/29 12:20:50;;;;;;;1.33;1.10;;;17.50;26.40;;;;;;5114387;28;20629;-60
2020/12/29 12:23:15;;;;;;;0.95;0.93;;;16.90;26.00;;;;;;5113921;28;20210;-60
2020/12/29 12:25:41;;;;;;;1.47;1.10;;;17.60;26.40;;;;;;5114435;28;20600;-61
2020/12/29 12:28:07;;;;;;;1.87;1.30;;;17.60;26.40;;;;;;5114163;28;20411;-62
2020/12/29 12:30:32;;;;;;;1.80;1.13;;;17.60;26.50;;;;;;5114424;28;20194;-62
2020/12/29 12:32:58;;;;;;;2.10;1.67;;;17.50;26.40;;;;;;5096121;28;20161;-62
2020/12/29 12:35:24;;;;;;;2.00;1.43;;;17.50;26.40;;;;;;5114166;28;20212;-63
2020/12/29 12:37:49;;;;;;;1.73;1.43;;;17.50;26.40;;;;;;5095584;28;20620;-61
2020/12/29 12:40:15;;;;;;;1.47;1.17;;;17.50;26.40;;;;;;5114190;28;20165;-61
2020/12/29 12:42:41;;;;;;;1.57;1.47;;;17.50;26.40;;;;;;5113135;28;20173;-62
2020/12/29 12:45:07;;;;;;;1.60;1.30;;;17.50;26.40;;;;;;5114244;28;20190;-61
2020/12/29 12:47:32;;;;;;;2.10;1.30;;;17.50;26.40;;;;;;5114041;28;20407;-61
2020/12/29 12:49:58;;;;;;;1.47;1.30;;;17.50;26.40;;;;;;5114019;28;20545;-61
2020/12/29 12:52:24;;;;;;;1.57;1.47;;;17.50;26.40;;;;;;5113799;28;20209;-61